Fort Lauderdale, FL (33335)

2:21 AM EDT on August 28, 2014 (GMT -0400)
North Andrews Gardens | Change Station
CLOSE
Current Station
Personal Weather Station
Location: Fort Lauderdale, FL
Elevation: 9 ft
Nearby Weather Stations

Elev 9 ft 26.18 °N, 80.14 °W | Updated 25 seconds ago

Overcast
Overcast
83.4 °F
Feels Like 91 °F
N
1.0
Wind Variable Wind from ENE
Gusts 1.0 mph

Today
High -- | Low -- °F
--% Chance of Precip.
Yesterday
High -- | Low -- °F
Precip. -- in
6:58 AM 7:44 PM
Waxing Crescent, 6% visible
Pressure 29.99 in
Visibility 10.0 miles
Clouds Overcast 8000 ft
Heat Index 91 °F
Dew Point 75 °F
Humidity 75%
Rainfall 0.00 in
Snow Depth Not available.
UV 0 out of 12
Pollen 4.80 out of 12
Air Quality Not available.
Flu Activity Not available.
METAR KFXE 280553Z 11007KT 10SM OVC080 29/24 A2998 RMK AO2 SLP153 T02890239 10294 20278 58001

More Conditions Fewer Conditions

Pressure 29.99 in
Visibility 10.0 miles
Clouds Overcast 8000 ft
Heat Index 91 °F
Dew Point 75 °F
Humidity 75%
Rainfall 0.00 in
Snow Depth Not available.
UV 0 out of 12
Pollen 4.80 out of 12
Air Quality Not available.
Flu Activity Not available.
METAR KFXE 280553Z 11007KT 10SM OVC080 29/24 A2998 RMK AO2 SLP153 T02890239 10294 20278 58001

More Conditions Fewer Conditions

Nowcast | as of 12:23 am EDT on August 28, 2014

Showers and isolated thunderstorms will continue to move northward into the southern portions of Biscayne Bay and the southern tip of the South Florida peninsula. These showers will produce brief downpours...gusty winds to near 30 mph and occasional lightning strikes.

×

10-Day Weather Forecast

Almanac

Astronomy

Aug. 28, 2014 Rise Set
Actual Time 6:58 AM EDT 7:44 PM EDT
Civil Twilight 6:35 AM EDT 8:07 PM EDT
Nautical Twilight 6:07 AM EDT 8:35 PM EDT
Astronomical Twilight 5:39 AM EDT 9:03 PM EDT
Moon 9:29 AM EDT 9:30 PM EDT
Length of Visible Light 13h 32m
Length of Day
12h 45m
Tomorrow will be 1m 27s shorter.
Waxing Crescent, 6% of the Moon is Illuminated
Today
Waxing Crescent
Sep 2
First Quarter
Sep 8
Full
Sep 15
Last Quarter
Sep 24
New

Today's Extremes

State Highs State Lows

Community

WunderPhotos

Upload Photos

1,747,912 photos uploaded!

Nearby

Air Quality

  Air Quality AQ Index Pollutant
Thursday Good
OZONE

Snow Depth

Station Depth Elevation
No new snow has been reported.

Earthquake Activity

City Distance Mag. Time & Date
No recent earthquake activity has been reported nearby.
Minimum magnitude displayed is 2.5.

Coastal Water Temperatures

Place Temperature
Virginia Key, FL 87.1 °F

Nearby Weather Stations